Time;durP1;ratioP1;P1;durP2;ratioP2;P2;SDS_P1;SDS_P2;PMS_P1;PMS_P2;Temp;Humidity;BMP_temperature;BMP_pressure;BME280_temperature;BME280_humidity;BME280_pressure;Samples;Min_cycle;Max_cycle;Signal;HPM_P1;HPM_P2
2021/09/11 00:01:58;;;;;;;39.98;33.53;;;;;;;14.27;72.09;100620.77;1713105;82;21054;-56
2021/09/11 00:04:24;;;;;;;;;;;;;;;14.22;72.21;100617.34;1709356;82;21516;-56
2021/09/11 00:06:51;;;;;;;40.15;31.00;;;;;;;14.17;72.41;100616.63;1725776;82;20464;-56
2021/09/11 00:09:17;;;;;;;31.12;27.22;;;;;;;14.06;72.47;100617.77;1722321;82;21026;-56
2021/09/11 00:11:45;;;;;;;32.30;27.15;;;;;;;14.05;72.39;100622.27;1709121;82;21010;-56
2021/09/11 00:14:11;;;;;;;31.42;25.85;;;;;;;14.01;72.30;100613.00;1710679;82;21011;-57
2021/09/11 00:16:37;;;;;;;34.40;28.10;;;;;;;14.08;72.27;100617.86;1711360;82;21030;-57
2021/09/11 00:19:03;;;;;;;31.10;26.87;;;;;;;14.04;72.36;100615.28;1714178;82;21070;-57
2021/09/11 00:21:29;;;;;;;31.90;27.30;;;;;;;13.96;72.64;100618.98;1717921;82;21110;-56
2021/09/11 00:23:55;;;;;;;36.63;27.60;;;;;;;13.88;72.82;100619.67;1700354;82;21508;-56
2021/09/11 00:26:22;;;;;;;34.88;28.65;;;;;;;13.80;73.07;100617.49;1711145;82;21117;-56
2021/09/11 00:28:47;;;;;;;31.45;26.48;;;;;;;13.76;73.22;100622.12;1696971;82;21054;-58
2021/09/11 00:31:13;;;;;;;30.25;27.00;;;;;;;13.77;73.21;100619.78;1694444;82;21693;-58
2021/09/11 00:33:40;;;;;;;31.87;27.87;;;;;;;13.75;73.21;100620.47;1715183;82;21564;-56
2021/09/11 00:36:07;;;;;;;39.18;27.65;;;;;;;13.71;73.60;100615.20;1720207;82;21110;-56
2021/09/11 00:38:34;;;;;;;31.33;27.98;;;;;;;13.62;73.86;100611.38;1728643;82;21078;-56
2021/09/11 00:41:00;;;;;;;36.63;28.20;;;;;;;13.57;73.93;100614.35;1715127;82;21031;-57
2021/09/11 00:43:28;;;;;;;34.13;27.37;;;;;;;13.50;74.10;100614.31;1726050;82;21551;-57
2021/09/11 00:45:56;;;;;;;31.12;25.75;;;;;;;13.49;74.16;100615.88;1724583;82;21081;-56
2021/09/11 00:48:22;;;;;;;29.37;26.33;;;;;;;13.50;74.05;100612.98;1717541;82;21031;-57
2021/09/11 00:50:50;;;;;;;32.88;26.62;;;;;;;13.50;74.10;100612.98;1725504;82;21043;-57
2021/09/11 00:53:17;;;;;;;33.00;27.98;;;;;;;13.47;74.32;100621.43;1710616;82;21493;-57
2021/09/11 00:55:45;;;;;;;33.98;26.65;;;;;;;13.41;74.61;100617.70;1717039;82;21584;-57
2021/09/11 00:58:14;;;;;;;35.80;28.10;;;;;;;13.37;74.89;100619.63;1701664;82;21026;-56
2021/09/11 01:00:39;;;;;;;31.85;27.22;;;;;;;13.32;75.13;100612.20;1714930;82;21010;-56
2021/09/11 01:03:05;;;;;;;37.78;29.27;;;;;;;13.33;75.18;100619.72;1710988;82;21183;-56
2021/09/11 01:05:33;;;;;;;37.33;29.27;;;;;;;13.36;75.00;100615.31;1706651;82;21137;-57
2021/09/11 01:07:59;;;;;;;35.05;29.35;;;;;;;13.37;75.06;100615.12;1723673;82;21126;-57
2021/09/11 01:10:25;;;;;;;;;;;;;;;13.35;75.22;100613.64;1710669;82;21043;-57
2021/09/11 01:12:53;;;;;;;32.97;28.50;;;;;;;13.28;75.43;100610.92;1724715;82;20458;-57
2021/09/11 01:15:34;;;;;;;33.30;28.17;;;;;;;13.16;75.83;100613.84;1709272;82;21127;-55
2021/09/11 01:18:01;;;;;;;38.80;28.92;;;;;;;13.14;75.89;100615.38;1693132;82;21070;-55
2021/09/11 01:20:28;;;;;;;30.20;26.90;;;;;;;13.17;75.96;100619.00;1709857;82;21062;-55
2021/09/11 01:22:55;;;;;;;32.08;28.07;;;;;;;13.22;75.96;100610.36;1720591;82;21655;-55
2021/09/11 01:25:21;;;;;;;;;;;;;;;13.23;75.99;100613.37;1713078;82;21517;-57
2021/09/11 01:27:46;;;;;;;31.02;26.50;;;;;;;13.22;76.20;100611.70;1667329;84;20147;-56
2021/09/11 01:30:16;;;;;;;32.55;28.05;;;;;;;13.15;76.32;100609.53;1705704;82;21190;-56
2021/09/11 01:32:44;;;;;;;33.02;27.27;;;;;;;13.12;76.44;100604.56;1706735;82;21007;-56
2021/09/11 01:35:11;;;;;;;34.75;26.17;;;;;;;13.16;76.44;100602.61;1723405;82;21026;-57
2021/09/11 01:37:38;;;;;;;32.83;27.42;;;;;;;13.24;76.12;100598.94;1709605;82;21038;-55
2021/09/11 01:40:08;;;;;;;34.15;28.60;;;;;;;13.29;75.99;100595.16;1712115;82;22427;-56
2021/09/11 01:42:35;;;;;;;30.70;27.48;;;;;;;13.30;76.01;100602.21;1713738;82;21052;-55
2021/09/11 01:45:14;;;;;;;30.88;27.67;;;;;;;13.28;76.05;100607.40;1695812;82;21042;-55
2021/09/11 01:47:43;;;;;;;29.87;25.08;;;;;;;13.24;76.12;100605.63;1675781;84;21077;-56
2021/09/11 01:50:12;;;;;;;28.47;25.05;;;;;;;13.24;76.00;100603.80;1683044;84;21024;-55
2021/09/11 01:52:39;;;;;;;33.95;27.58;;;;;;;13.28;75.88;100602.89;1687702;84;21134;-55
2021/09/11 01:55:08;;;;;;;33.75;28.55;;;;;;;13.27;75.80;100603.09;1676671;84;21118;-55
2021/09/11 01:57:40;;;;;;;38.90;29.32;;;;;;;13.23;76.18;100602.14;1664424;85;21050;-55
2021/09/11 02:00:13;;;;;;;39.42;28.52;;;;;;;13.23;77.40;100606.16;1681964;84;20960;-55
2021/09/11 02:02:41;;;;;;;30.25;27.20;;;;;;;13.32;77.51;100599.34;1682495;84;21119;-55
2021/09/11 02:05:10;;;;;;;34.33;28.25;;;;;;;13.42;76.98;100601.94;1695664;84;20995;-56
2021/09/11 02:07:36;;;;;;;35.20;28.42;;;;;;;13.47;76.71;100597.82;1669291;84;20968;-56
2021/09/11 02:10:08;;;;;;;33.73;29.00;;;;;;;13.44;76.41;100595.86;1691369;83;21007;-55
2021/09/11 02:12:34;;;;;;;31.35;27.65;;;;;;;13.41;76.22;100599.45;1680191;84;21296;-55
2021/09/11 02:15:02;;;;;;;31.90;27.22;;;;;;;13.35;76.51;100597.06;1682147;84;21019;-57
2021/09/11 02:17:28;;;;;;;32.42;26.33;;;;;;;13.37;76.44;100596.86;1683475;84;21028;-57
2021/09/11 02:19:54;;;;;;;32.48;26.45;;;;;;;13.40;76.14;100603.98;1648391;86;21063;-55
2021/09/11 02:22:21;;;;;;;35.15;28.30;;;;;;;13.41;76.05;100608.33;1696692;82;21020;-55
2021/09/11 02:24:49;;;;;;;31.93;27.25;;;;;;;13.37;76.00;100604.41;1680482;84;21092;-55
2021/09/11 02:27:15;;;;;;;34.18;28.00;;;;;;;13.29;76.19;100603.19;1677914;84;21055;-56
2021/09/11 02:29:42;;;;;;;32.33;27.20;;;;;;;13.23;76.36;100602.14;1684126;84;21078;-56
2021/09/11 02:32:08;;;;;;;30.82;26.75;;;;;;;13.23;76.41;100609.35;1685582;84;21038;-56
2021/09/11 02:34:35;;;;;;;28.00;25.30;;;;;;;13.27;76.20;100609.26;1678442;84;21042;-57
2021/09/11 02:37:01;;;;;;;31.95;27.80;;;;;;;13.25;76.06;100611.31;1682597;84;21092;-57
2021/09/11 02:39:27;;;;;;;29.95;25.95;;;;;;;13.21;76.18;100606.05;1647667;86;21011;-57
2021/09/11 02:41:55;;;;;;;34.40;27.42;;;;;;;13.14;76.47;100607.86;1658576;86;21040;-57
2021/09/11 02:45:13;;;;;;;30.57;27.17;;;;;;;13.11;76.79;100606.42;1790762;78;23183;-58
2021/09/11 02:47:39;;;;;;;28.85;25.82;;;;;;;13.07;76.69;100612.35;1736659;81;21090;-57
2021/09/11 02:50:07;;;;;;;29.57;26.37;;;;;;;13.08;76.46;100613.50;1740783;81;21475;-56
2021/09/11 02:52:33;;;;;;;40.38;28.30;;;;;;;13.06;76.57;100608.86;1725142;81;20966;-56
2021/09/11 02:54:59;;;;;;;36.42;28.12;;;;;;;13.02;76.83;100605.75;1734117;81;21622;-51
2021/09/11 02:57:25;;;;;;;34.80;26.50;;;;;;;12.98;76.99;100610.37;1750238;81;21033;-52
2021/09/11 02:59:52;;;;;;;31.37;27.75;;;;;;;12.91;77.13;100606.30;1737057;81;21065;-52
2021/09/11 03:02:18;;;;;;;30.80;27.22;;;;;;;12.88;77.08;100608.02;1697638;83;21033;-52
2021/09/11 03:04:44;;;;;;;30.55;26.97;;;;;;;12.89;77.04;100605.67;1703318;83;21727;-52
2021/09/11 03:07:11;;;;;;;30.12;26.55;;;;;;;12.91;77.06;100608.16;1697222;83;21102;-51
2021/09/11 03:09:37;;;;;;;29.72;26.55;;;;;;;12.88;77.15;100606.69;1700120;83;20983;-51
2021/09/11 03:12:06;;;;;;;30.15;27.13;;;;;;;12.84;77.24;100612.12;1662242;84;21002;-51
2021/09/11 03:14:32;;;;;;;29.32;26.25;;;;;;;12.80;77.28;100605.52;1673177;84;21568;-53
2021/09/11 03:17:00;;;;;;;30.80;26.87;;;;;;;12.81;77.21;100604.50;1676982;84;21073;-53
2021/09/11 03:19:26;;;;;;;30.25;25.25;;;;;;;12.84;76.88;100610.78;1673765;84;21018;-54
2021/09/11 03:21:54;;;;;;;35.35;28.60;;;;;;;12.82;76.70;100608.81;1660965;84;21097;-55
2021/09/11 03:24:20;;;;;;;33.40;26.93;;;;;;;12.78;76.86;100614.25;1670399;84;21051;-54
2021/09/11 03:26:46;;;;;;;32.78;27.50;;;;;;;12.73;77.12;100616.67;1658276;84;21081;-54
2021/09/11 03:29:12;;;;;;;31.05;27.82;;;;;;;12.68;77.22;100620.44;1668161;84;21591;-54
2021/09/11 03:31:38;;;;;;;34.08;29.37;;;;;;;12.61;77.27;100619.89;1677121;84;21029;-54
2021/09/11 03:34:04;;;;;;;31.15;27.25;;;;;;;12.58;77.44;100616.28;1679024;84;21061;-54
2021/09/11 03:36:31;;;;;;;;;;;;;;;12.65;77.40;100612.30;1681991;84;21060;-54
2021/09/11 03:38:57;;;;;;;30.82;25.92;;;;;;;12.70;77.34;100611.73;1676178;84;20135;-54
2021/09/11 03:41:23;;;;;;;32.08;28.65;;;;;;;12.69;77.35;100621.59;1676714;84;21059;-55
2021/09/11 03:43:49;;;;;;;29.23;25.95;;;;;;;12.69;77.32;100612.75;1675574;84;21185;-55
2021/09/11 03:46:15;;;;;;;33.38;29.45;;;;;;;12.69;77.54;100616.76;1716262;81;21548;-54
2021/09/11 03:48:41;;;;;;;35.75;29.52;;;;;;;12.69;77.58;100614.90;1717904;82;21057;-54
2021/09/11 03:51:09;;;;;;;34.30;28.67;;;;;;;12.72;77.45;100617.72;1704753;82;21088;-55
2021/09/11 03:53:35;;;;;;;31.25;27.42;;;;;;;12.75;77.08;100618.16;1719136;82;21524;-53
2021/09/11 03:56:04;;;;;;;28.70;25.05;;;;;;;12.85;76.88;100619.95;1708486;82;21030;-54
2021/09/11 03:58:30;;;;;;;30.77;27.30;;;;;;;13.09;77.10;100616.99;1710394;82;21061;-55
2021/09/11 04:01:00;;;;;;;30.72;27.27;;;;;;;13.42;76.58;100620.67;1697795;82;21524;-54
2021/09/11 04:03:26;;;;;;;37.13;27.35;;;;;;;13.79;75.28;100615.86;1695028;82;21153;-54
2021/09/11 04:05:52;;;;;;;32.00;27.37;;;;;;;14.21;73.93;100613.84;1713275;82;21030;-55
2021/09/11 04:08:19;;;;;;;33.10;27.77;;;;;;;14.69;72.51;100616.02;1711515;82;21034;-55
2021/09/11 04:10:47;;;;;;;32.28;28.83;;;;;;;15.16;70.79;100614.89;1703036;82;21537;-55
2021/09/11 04:13:15;;;;;;;32.63;29.18;;;;;;;15.63;69.12;100611.17;1697614;82;21125;-55
2021/09/11 04:15:42;;;;;;;32.17;28.02;;;;;;;16.12;67.40;100615.02;1684658;82;21026;-54
2021/09/11 04:18:09;;;;;;;31.55;27.95;;;;;;;16.58;65.61;100613.83;1700614;82;21033;-55
2021/09/11 04:20:35;;;;;;;39.23;27.98;;;;;;;17.04;64.15;100619.28;1690300;82;21197;-55
2021/09/11 04:23:02;;;;;;;34.92;28.15;;;;;;;17.53;62.42;100618.50;1688451;82;21508;-55
2021/09/11 04:25:28;;;;;;;28.90;25.75;;;;;;;18.05;60.87;100623.70;1656702;85;21115;-56
2021/09/11 04:27:54;;;;;;;29.87;26.68;;;;;;;18.59;59.46;100624.17;1662962;85;21144;-56
2021/09/11 04:30:20;;;;;;;;;;;;;;;19.05;57.59;100615.79;1664051;85;21596;-56
2021/09/11 04:32:46;;;;;;;33.35;29.55;;;;;;;19.43;56.36;100619.80;1654772;85;20177;-56
2021/09/11 04:35:12;;;;;;;30.60;27.40;;;;;;;19.77;55.42;100623.98;1685255;84;21492;-56
2021/09/11 04:37:40;;;;;;;32.38;28.92;;;;;;;20.13;54.35;100611.09;1646043;86;21010;-56
2021/09/11 04:40:08;;;;;;;34.53;28.83;;;;;;;20.43;53.46;100614.81;1651433;86;21050;-55
2021/09/11 04:42:34;;;;;;;32.13;27.52;;;;;;;20.74;52.54;100613.43;1626435;87;21112;-56
2021/09/11 04:45:00;;;;;;;;;;;;;;;21.12;51.48;100613.66;1692884;82;21005;-56
2021/09/11 04:47:27;;;;;;;35.35;29.40;;;;;;;21.48;50.45;100609.50;1705158;82;20196;-56
2021/09/11 04:49:53;;;;;;;31.82;28.52;;;;;;;21.77;49.59;100608.73;1707781;82;21024;-56
2021/09/11 04:52:19;;;;;;;;;;;;;;;22.11;48.83;100611.73;1709504;82;21506;-55
2021/09/11 04:54:45;;;;;;;33.28;29.30;;;;;;;22.40;48.21;100611.47;1669615;84;20491;-55
2021/09/11 04:57:13;;;;;;;31.37;27.82;;;;;;;22.54;47.96;100614.00;1632143;85;21120;-56
2021/09/11 04:59:39;;;;;;;32.10;28.70;;;;;;;22.75;47.44;100605.43;1649530;85;21591;-55
2021/09/11 05:02:06;;;;;;;34.40;30.02;;;;;;;23.00;47.09;100611.56;1677323;84;21017;-56
2021/09/11 05:04:32;;;;;;;31.35;27.77;;;;;;;23.21;46.46;100607.61;1631936;86;21101;-55
2021/09/11 05:07:00;;;;;;;33.63;29.40;;;;;;;23.48;46.01;100604.69;1642661;86;21730;-56
2021/09/11 05:09:27;;;;;;;31.68;28.45;;;;;;;23.73;45.56;100605.28;1624749;86;21061;-56
2021/09/11 05:11:54;;;;;;;30.25;27.10;;;;;;;23.93;45.36;100605.08;1675479;83;21069;-56
2021/09/11 05:14:21;;;;;;;29.80;26.87;;;;;;;24.08;45.04;100608.62;1690555;83;21085;-56
2021/09/11 05:16:47;;;;;;;31.65;28.25;;;;;;;24.29;44.73;100602.61;1686032;83;21100;-55
2021/09/11 05:19:14;;;;;;;29.20;26.40;;;;;;;24.07;45.36;100602.08;1706939;83;21060;-56
2021/09/11 05:21:42;;;;;;;28.52;25.60;;;;;;;23.33;47.10;100608.17;1698141;83;21535;-55
2021/09/11 05:24:08;;;;;;;31.23;28.07;;;;;;;22.63;48.99;100601.56;1691074;83;21634;-47
2021/09/11 05:26:36;;;;;;;30.30;26.77;;;;;;;22.29;50.19;100612.73;1694239;83;21060;-47
2021/09/11 05:29:02;;;;;;;31.70;28.25;;;;;;;22.29;50.64;100607.31;1697092;83;20994;-55
2021/09/11 05:31:30;;;;;;;30.23;27.32;;;;;;;22.43;50.55;100602.78;1688113;83;21036;-48
2021/09/11 05:33:56;;;;;;;31.62;28.38;;;;;;;22.71;50.04;100604.33;1639949;85;21087;-51
2021/09/11 05:36:22;;;;;;;;;;;;;;;23.03;49.20;100602.89;1637678;86;21244;-47
2021/09/11 05:38:49;;;;;;;32.38;28.90;;;;;;;23.32;48.31;100609.28;1635759;86;20498;-47
2021/09/11 05:41:15;;;;;;;30.60;27.40;;;;;;;23.44;48.33;100604.41;1634365;86;21061;-46
2021/09/11 05:43:42;;;;;;;31.33;27.95;;;;;;;23.80;47.38;100606.42;1618284;86;21677;-47
2021/09/11 05:46:08;;;;;;;32.70;29.30;;;;;;;24.16;46.61;100603.72;1621168;86;21050;-46
2021/09/11 05:48:35;;;;;;;31.80;28.40;;;;;;;24.48;46.26;100599.33;1633722;87;21069;-47
2021/09/11 05:51:03;;;;;;;30.62;26.60;;;;;;;24.85;45.25;100598.20;1628531;86;21558;-45
2021/09/11 05:53:30;;;;;;;34.05;29.35;;;;;;;24.98;44.61;100597.60;1632021;87;21640;-45
2021/09/11 05:55:56;;;;;;;32.33;29.18;;;;;;;25.14;44.28;100601.62;1629879;85;21173;-46
2021/09/11 05:58:24;;;;;;;37.20;28.77;;;;;;;25.26;43.89;100596.70;1614233;86;21086;-47
2021/09/11 06:00:50;;;;;;;29.95;26.85;;;;;;;25.36;44.19;100597.20;1640791;86;21533;-47
2021/09/11 06:03:17;;;;;;;33.48;28.70;;;;;;;25.63;43.25;100600.84;1683390;84;21099;-46
2021/09/11 06:05:44;;;;;;;30.65;27.37;;;;;;;25.81;42.63;100594.72;1660015;84;21920;-47
2021/09/11 06:08:10;;;;;;;32.65;28.40;;;;;;;25.90;41.99;100595.47;1673820;84;20981;-47
2021/09/11 06:10:36;;;;;;;28.87;25.17;;;;;;;26.00;41.89;100589.98;1655924;84;21981;-48
2021/09/11 06:13:04;;;;;;;31.60;24.60;;;;;;;26.15;41.27;100593.94;1654736;85;21013;-47
2021/09/11 06:15:32;;;;;;;30.43;25.15;;;;;;;26.32;40.78;100598.98;1665716;85;21054;-48
2021/09/11 06:17:58;;;;;;;26.60;23.73;;;;;;;26.50;40.27;100597.42;1637370;85;21172;-48
2021/09/11 06:20:27;;;;;;;26.80;22.87;;;;;;;26.53;39.42;100594.69;1644013;85;21074;-47
2021/09/11 06:22:53;;;;;;;26.93;24.02;;;;;;;26.39;39.36;100593.16;1671859;84;20992;-48
2021/09/11 06:25:19;;;;;;;30.30;23.70;;;;;;;26.13;40.16;100593.97;1631389;86;21101;-48
2021/09/11 06:27:45;;;;;;;27.87;23.40;;;;;;;25.91;40.85;100595.75;1679822;84;21561;-51
2021/09/11 06:30:14;;;;;;;28.07;23.47;;;;;;;25.83;41.01;100601.27;1686174;84;21035;-52
2021/09/11 06:32:40;;;;;;;28.77;23.60;;;;;;;25.68;41.33;100598.09;1652938;84;20979;-52
2021/09/11 06:35:07;;;;;;;26.48;22.85;;;;;;;25.63;41.24;100599.48;1671970;83;21018;-51
2021/09/11 06:37:34;;;;;;;29.30;25.02;;;;;;;25.56;41.23;100594.88;1662022;85;21129;-50
2021/09/11 06:40:01;;;;;;;31.90;26.77;;;;;;;25.38;41.23;100595.81;1673145;85;20959;-51
2021/09/11 06:42:28;;;;;;;28.00;24.92;;;;;;;25.23;41.89;100593.97;1661217;85;21557;-50
2021/09/11 06:44:54;;;;;;;30.62;27.52;;;;;;;25.20;41.59;100588.23;1669720;83;21015;-51
2021/09/11 06:47:22;;;;;;;27.42;24.40;;;;;;;24.85;42.15;100588.10;1685162;84;21028;-51
2021/09/11 06:49:48;;;;;;;24.32;21.68;;;;;;;24.61;42.75;100592.53;1674029;84;21040;-52
2021/09/11 06:52:15;;;;;;;25.27;21.77;;;;;;;24.33;43.11;100601.52;1667788;84;21087;-51
2021/09/11 06:54:42;;;;;;;21.85;19.73;;;;;;;23.94;43.68;100603.98;1669241;84;21013;-52
2021/09/11 06:57:10;;;;;;;29.42;21.27;;;;;;;23.53;44.92;100601.99;1690860;83;21050;-50
2021/09/11 06:59:37;;;;;;;26.17;21.65;;;;;;;23.26;45.29;100606.24;1691499;83;21011;-50
2021/09/11 07:02:03;;;;;;;26.15;22.60;;;;;;;23.08;46.13;100615.70;1664320;83;20983;-52
2021/09/11 07:04:29;;;;;;;25.00;22.42;;;;;;;22.87;46.52;100609.33;1656404;85;20999;-54
2021/09/11 07:06:55;;;;;;;21.27;19.20;;;;;;;22.64;47.23;100609.16;1650205;85;21063;-51
2021/09/11 07:09:23;;;;;;;21.55;19.25;;;;;;;22.51;47.32;100611.83;1669675;85;21042;-55
2021/09/11 07:11:51;;;;;;;22.58;20.27;;;;;;;22.43;47.38;100610.93;1681996;84;21029;-53
2021/09/11 07:14:17;;;;;;;22.93;20.10;;;;;;;22.32;47.78;100613.59;1683583;84;21073;-52
2021/09/11 07:16:45;;;;;;;22.35;19.05;;;;;;;22.23;48.42;100608.87;1670770;84;21070;-50
2021/09/11 07:19:12;;;;;;;23.98;18.80;;;;;;;22.19;48.40;100611.28;1673910;84;21586;-51
2021/09/11 07:21:38;;;;;;;21.87;19.50;;;;;;;22.29;48.51;100613.28;1667360;84;21608;-51
2021/09/11 07:24:05;;;;;;;22.40;19.77;;;;;;;22.39;48.92;100605.20;1657623;84;21122;-49
2021/09/11 07:26:31;;;;;;;21.42;19.12;;;;;;;22.47;48.66;100606.09;1665603;84;21197;-51
2021/09/11 07:28:58;;;;;;;23.70;21.40;;;;;;;22.52;48.38;100602.58;1685273;84;21013;-50
2021/09/11 07:31:24;;;;;;;23.20;20.35;;;;;;;22.60;48.73;100604.80;1668747;84;21395;-53
2021/09/11 07:33:50;;;;;;;25.37;19.98;;;;;;;22.62;48.85;100603.18;1660935;84;20988;-52
2021/09/11 07:36:16;;;;;;;23.05;20.72;;;;;;;22.65;49.25;100603.48;1672307;84;20976;-49
2021/09/11 07:38:43;;;;;;;20.90;18.87;;;;;;;22.71;48.59;100602.97;1666207;84;21070;-51
2021/09/11 07:41:10;;;;;;;23.30;19.23;;;;;;;22.80;48.69;100601.39;1635599;86;21555;-51
2021/09/11 07:43:36;;;;;;;20.75;18.62;;;;;;;22.86;48.60;100598.97;1633469;87;21110;-51
2021/09/11 07:46:03;;;;;;;20.15;18.05;;;;;;;22.89;48.54;100602.53;1666918;84;21524;-51
2021/09/11 07:48:30;;;;;;;18.20;16.50;;;;;;;22.98;48.32;100604.22;1669381;84;21084;-51
2021/09/11 07:50:56;;;;;;;18.92;16.57;;;;;;;23.13;47.63;100598.88;1666229;84;21076;-53
2021/09/11 07:53:22;;;;;;;15.05;13.48;;;;;;;23.29;47.35;100601.64;1627087;84;81432;-62
2021/09/11 07:55:48;;;;;;;16.52;14.87;;;;;;;23.35;46.04;100603.29;1596697;88;21118;-61
2021/09/11 07:58:14;;;;;;;16.62;14.58;;;;;;;23.32;46.20;100603.84;1599481;88;21620;-60
2021/09/11 08:00:42;;;;;;;16.12;14.28;;;;;;;23.31;46.69;100608.44;1590911;88;21099;-61
2021/09/11 08:03:08;;;;;;;15.53;14.03;;;;;;;23.30;46.92;100609.54;1581991;88;21638;-62
2021/09/11 08:05:34;;;;;;;17.00;13.60;;;;;;;23.31;47.00;100606.27;1525646;92;21101;-63
2021/09/11 08:08:01;;;;;;;18.75;14.98;;;;;;;23.31;47.16;100596.20;1525439;92;21116;-62
2021/09/11 08:10:27;;;;;;;17.80;12.98;;;;;;;23.35;47.16;100595.68;1530335;92;21092;-72
2021/09/11 08:12:53;;;;;;;15.85;13.13;;;;;;;23.42;47.58;100592.17;1556786;90;21124;-66
2021/09/11 08:15:22;;;;;;;15.63;14.03;;;;;;;23.47;46.46;100596.23;1566284;90;21153;-67
2021/09/11 08:17:48;;;;;;;16.20;13.30;;;;;;;23.49;46.74;100592.19;1559631;90;21133;-75
2021/09/11 08:20:16;;;;;;;13.10;11.93;;;;;;;23.48;45.74;100592.45;1561318;90;21122;-68
2021/09/11 08:22:42;;;;;;;16.97;12.47;;;;;;;23.46;45.99;100591.35;1563521;90;21784;-79
2021/09/11 08:25:09;;;;;;;16.23;11.95;;;;;;;23.45;45.57;100589.73;1566791;90;21137;-69
2021/09/11 08:27:36;;;;;;;11.85;10.65;;;;;;;23.46;45.56;100585.10;1554882;90;21175;-70
2021/09/11 08:30:05;;;;;;;14.18;11.05;;;;;;;23.49;45.30;100579.13;1561958;90;21156;-70
2021/09/11 08:32:31;;;;;;;13.00;11.73;;;;;;;23.54;45.45;100577.77;1569790;90;21067;-73
2021/09/11 08:34:57;;;;;;;11.95;10.95;;;;;;;23.61;45.42;100581.59;1560156;90;21089;-73
2021/09/11 08:37:23;;;;;;;12.58;11.00;;;;;;;23.65;44.04;100590.86;1553947;90;21062;-68
2021/09/11 08:39:51;;;;;;;12.05;11.05;;;;;;;23.69;43.38;100584.59;1559585;90;21172;-70
2021/09/11 08:42:21;;;;;;;12.40;11.20;;;;;;;23.78;43.94;100580.80;1561677;90;21296;-73
2021/09/11 08:44:48;;;;;;;14.15;12.85;;;;;;;23.79;44.33;100577.03;1562625;90;21106;-72
2021/09/11 08:47:14;;;;;;;12.90;11.70;;;;;;;23.79;44.60;100572.95;1566707;90;21185;-70
2021/09/11 08:49:41;;;;;;;14.55;13.40;;;;;;;23.82;44.59;100572.39;1557125;90;21125;-71
2021/09/11 08:52:08;;;;;;;13.15;10.90;;;;;;;23.82;44.58;100572.95;1567198;90;21106;-72
2021/09/11 08:54:36;;;;;;;12.25;11.25;;;;;;;23.87;44.73;100571.59;1565064;90;21101;-74
2021/09/11 08:57:25;;;;;;;13.93;12.55;;;;;;;23.96;44.75;100563.69;1565461;90;21145;-74
2021/09/11 08:59:54;;;;;;;20.17;12.88;;;;;;;24.03;44.61;100559.59;1574477;90;21120;-75
2021/09/11 09:02:24;;;;;;;13.62;12.20;;;;;;;24.16;44.37;100561.51;1568330;88;21177;-80
2021/09/11 09:04:55;;;;;;;13.45;12.00;;;;;;;24.27;44.21;100553.59;1566414;90;21126;-81
2021/09/11 09:07:41;;;;;;;15.65;12.07;;;;;;;24.40;43.99;100553.59;1563723;90;21234;-83
2021/09/11 09:10:18;;;;;;;14.47;11.97;;;;;;;24.52;43.88;100546.50;1567924;90;21014;-88
2021/09/11 09:12:51;;;;;;;11.65;10.23;;;;;;;24.56;43.59;100544.84;1564787;90;21116;-84
2021/09/11 09:15:20;;;;;;;14.47;11.15;;;;;;;24.49;42.26;100550.57;1573042;90;21120;-82
2021/09/11 09:17:52;;;;;;;13.65;11.73;;;;;;;24.33;42.62;100542.96;1557693;90;21406;-81
2021/09/11 09:20:26;;;;;;;13.65;12.15;;;;;;;24.17;43.16;100545.45;1566508;91;21187;-82
2021/09/11 09:23:07;;;;;;;16.17;11.83;;;;;;;23.99;43.63;100540.01;1565414;90;21627;-83
2021/09/11 09:25:37;;;;;;;12.88;10.55;;;;;;;23.84;43.21;100551.16;1559987;90;21214;-88
2021/09/11 09:28:12;;;;;;;14.35;11.28;;;;;;;23.74;43.49;100550.33;1562794;91;21138;-83
2021/09/11 09:30:50;;;;;;;11.55;10.58;;;;;;;23.69;43.83;100544.32;1566515;91;21646;-86
2021/09/11 09:33:26;;;;;;;12.73;11.50;;;;;;;23.65;44.07;100544.59;1558500;90;21126;-88
2021/09/11 09:35:53;;;;;;;12.85;11.73;;;;;;;23.64;44.41;100549.23;1551326;91;21150;-86
2021/09/11 09:38:19;;;;;;;12.47;11.15;;;;;;;23.60;44.58;100540.50;1565367;91;21109;-84
2021/09/11 09:40:52;;;;;;;18.50;11.12;;;;;;;23.58;44.96;100537.23;1552681;91;21167;-84
2021/09/11 09:43:40;;;;;;;11.95;10.82;;;;;;;23.57;45.01;100536.98;1539960;91;21195;-81
2021/09/11 09:46:19;;;;;;;16.27;11.50;;;;;;;23.55;44.90;100541.33;1512585;92;21198;-83
2021/09/11 09:48:48;;;;;;;12.35;10.63;;;;;;;23.57;44.29;100541.06;1542292;92;21189;-87
2021/09/11 09:51:20;;;;;;;14.93;10.65;;;;;;;23.64;43.81;100537.50;1526666;92;21156;-84
2021/09/11 09:53:51;;;;;;;11.10;10.00;;;;;;;23.72;43.55;100539.71;1538048;92;21101;-84
2021/09/11 09:56:18;;;;;;;10.90;9.80;;;;;;;23.86;43.16;100539.45;1541224;90;21146;-81
2021/09/11 09:58:44;;;;;;;11.88;10.75;;;;;;;23.99;42.84;100535.37;1536488;91;21154;-83
2021/09/11 10:01:10;;;;;;;9.90;9.08;;;;;;;24.07;43.03;100534.84;1539147;91;21122;-88
2021/09/11 10:03:37;;;;;;;11.45;10.32;;;;;;;24.17;42.61;100531.84;1532775;91;21238;-87
2021/09/11 10:06:26;;;;;;;11.88;10.68;;;;;;;24.20;41.43;100533.44;1541983;91;21532;-84
2021/09/11 10:09:07;;;;;;;11.25;10.25;;;;;;;24.21;41.33;100521.47;1546479;91;21155;-87
2021/09/11 10:11:49;;;;;;;11.43;10.38;;;;;;;24.24;41.48;100525.54;1525319;91;21135;-84
2021/09/11 10:14:24;;;;;;;9.80;9.00;;;;;;;24.29;40.69;100522.27;1535956;91;21178;-84
2021/09/11 10:17:16;;;;;;;10.23;9.30;;;;;;;24.32;40.53;100518.72;1539834;91;21139;-89
2021/09/11 10:19:56;;;;;;;9.93;8.33;;;;;;;24.38;40.31;100517.08;1536198;91;21159;-83
2021/09/11 10:22:36;;;;;;;10.65;8.73;;;;;;;23.22;39.96;100308.76;1528424;90;22009;-81
2021/09/11 10:25:05;;;;;;;10.72;9.08;;;;;;;24.61;39.78;100511.58;1543111;91;21631;-82
2021/09/11 10:27:59;;;;;;;9.10;8.33;;;;;;;24.75;39.88;100502.81;1543250;91;21208;-86
2021/09/11 10:30:31;;;;;;;11.50;8.93;;;;;;;24.85;39.94;100503.59;1540188;91;21211;-87
2021/09/11 10:32:58;;;;;;;9.95;8.93;;;;;;;24.98;39.15;100500.80;1515100;91;21132;-86
2021/09/11 10:35:37;;;;;;;9.85;8.95;;;;;;;25.09;38.70;100501.57;1533580;90;21141;-86
2021/09/11 10:38:10;;;;;;;7.50;6.97;;;;;;;25.17;38.42;100502.89;1539826;91;21118;-84
2021/09/11 10:40:47;;;;;;;11.22;8.65;;;;;;;25.22;37.55;100508.30;1541130;91;21117;-85
2021/09/11 10:43:19;;;;;;;8.95;8.20;;;;;;;25.17;36.95;100495.52;1542972;91;21168;-87
2021/09/11 10:45:54;;;;;;;9.90;8.95;;;;;;;25.10;37.55;100487.38;1568431;89;21287;-85
2021/09/11 10:48:44;;;;;;;11.18;8.85;;;;;;;25.06;38.09;100486.57;1571522;89;21593;-86
2021/09/11 10:51:18;;;;;;;14.60;8.45;;;;;;;25.02;38.21;100490.96;1574484;89;22153;-84
2021/09/11 10:54:08;;;;;;;11.93;9.65;;;;;;;25.01;37.60;100483.86;1573316;89;21209;-83
2021/09/11 10:56:52;;;;;;;10.20;9.15;;;;;;;25.06;37.65;100485.77;1573755;89;22332;-82
2021/09/11 10:59:23;;;;;;;9.20;8.58;;;;;;;25.14;38.60;100474.80;1565500;89;21099;-84
2021/09/11 11:02:23;;;;;;;10.08;8.53;;;;;;;25.15;38.87;100476.45;1578395;89;21175;-82
2021/09/11 11:04:57;;;;;;;12.58;8.80;;;;;;;25.16;38.86;100475.34;1576143;89;21187;-82
2021/09/11 11:07:28;;;;;;;9.53;8.75;;;;;;;25.16;38.79;100465.23;1583682;89;21098;-84
2021/09/11 11:10:11;;;;;;;10.03;9.10;;;;;;;25.15;38.69;100464.17;1575780;89;21118;-83
2021/09/11 11:12:45;;;;;;;12.00;9.88;;;;;;;25.17;38.11;100469.60;1569524;89;21325;-85
2021/09/11 11:15:17;;;;;;;8.83;8.13;;;;;;;25.23;37.49;100473.14;1575364;91;21055;-82
2021/09/11 11:17:48;;;;;;;8.98;8.18;;;;;;;25.25;37.01;100466.30;1575361;89;21102;-85
2021/09/11 11:20:27;;;;;;;8.98;8.28;;;;;;;25.27;36.96;100458.39;1578153;89;21091;-83